Ayr, ND

3:38 PM CST on January 27, 2015 (GMT -0600)
Moorhead Municipal | Change Station
CLOSE
Current Station
Airport
Location: Moorhead,
Elevation: 919 ft
Nearby Weather Stations

Elev 919 ft 46.84 °N, 96.66 °W | Updated 27 minutes ago

Overcast
Overcast
32 °F
Feels Like 20 °F
N
18
Wind Variable Wind from SSE
Gusts 26 mph

Today
High -- | Low -- °F
--% Chance of Precip.
Yesterday
High -- | Low -- °F
Precip. -- in
8:01 AM 5:25 PM
First Quarter, 58% visible
Pressure 30.00 in
Visibility 7.0 miles
Clouds Overcast 500 ft
Windchill 20 °F
Dew Point 32 °F
Humidity 100%
Rainfall 0.00 in
Snow Depth Not available.
UV 0 out of 12
Pollen .10 out of 12
Air Quality Not available.
Flu Activity Not available.
METAR KJKJ 272111Z AUTO 16016G23KT 7SM OVC005 00/00 A3000 RMK AO2

More Conditions Fewer Conditions

Pressure 30.00 in
Visibility 7.0 miles
Clouds Overcast 500 ft
Windchill 20 °F
Dew Point 32 °F
Humidity 100%
Rainfall 0.00 in
Snow Depth Not available.
UV 0 out of 12
Pollen .10 out of 12
Air Quality Not available.
Flu Activity Not available.
METAR KJKJ 272111Z AUTO 16016G23KT 7SM OVC005 00/00 A3000 RMK AO2

More Conditions Fewer Conditions

10-Day Weather Forecast

Almanac

Astronomy

Jan. 27, 2015 Rise Set
Actual Time
Civil Twilight
Nautical Twilight
Astronomical Twilight
Moon
Length of Visible Light
Length of Day
Tomorrow will be .
, % of the Moon is Illuminated

Today's Extremes

State Highs State Lows

Community

WunderPhotos

Upload Photos

1,790,918 photos uploaded!

WunderBlogs® & News

Nearby

Air Quality

  Air Quality AQ Index Pollutant
Not available.

Snow Depth

Station Depth Elevation

Earthquake Activity

City Distance Mag. Time & Date
Minimum magnitude displayed is 2.5.

Coastal Water Temperatures

Place Temperature

Nearby Weather Stations